Time;durP1;ratioP1;P1;durP2;ratioP2;P2;SDS_P1;SDS_P2;PMS_P1;PMS_P2;Temp;Humidity;BMP_temperature;BMP_pressure;BME280_temperature;BME280_humidity;BME280_pressure;Samples;Min_cycle;Max_cycle;Signal;HPM_P1;HPM_P2
2023/06/06 00:01:09;;;;;;;8.35;4.68;;;;;;;;;;5014087;28;20104;-70
2023/06/06 00:03:36;;;;;;;13.07;4.63;;;;;;;;;;5014388;28;20033;-70
2023/06/06 00:06:02;;;;;;;8.52;4.63;;;;;;;;;;5013845;28;20109;-70
2023/06/06 00:08:28;;;;;;;11.65;5.35;;;;;;;;;;5010785;28;20116;-71
2023/06/06 00:10:56;;;;;;;12.65;5.20;;;;;;;;;;5012101;28;20072;-71
2023/06/06 00:13:22;;;;;;;7.60;4.28;;;;;;;;;;5012667;28;20120;-71
2023/06/06 00:15:48;;;;;;;8.85;4.30;;;;;;;;;;5012289;28;20156;-70
2023/06/06 00:18:15;;;;;;;7.20;4.50;;;;;;;;;;5011595;28;20533;-70
2023/06/06 00:20:41;;;;;;;12.07;4.93;;;;;;;;;;5012132;28;20037;-71
2023/06/06 00:23:07;;;;;;;10.20;5.05;;;;;;;;;;5012961;28;20042;-71
2023/06/06 00:25:32;;;;;;;9.50;4.93;;;;;;;;;;5013059;28;20025;-70
2023/06/06 00:27:58;;;;;;;8.77;4.40;;;;;;;;;;5011856;28;20042;-70
2023/06/06 00:30:24;;;;;;;7.82;4.68;;;;;;;;;;5010147;28;20029;-70
2023/06/06 00:32:50;;;;;;;10.55;5.22;;;;;;;;;;5012217;28;20089;-70
2023/06/06 00:35:15;;;;;;;8.90;4.70;;;;;;;;;;5012800;28;20032;-71
2023/06/06 00:37:43;;;;;;;7.30;4.70;;;;;;;;;;5012383;28;20096;-70
2023/06/06 00:40:10;;;;;;;8.40;4.53;;;;;;;;;;5012671;28;20030;-70
2023/06/06 00:42:36;;;;;;;12.00;5.28;;;;;;;;;;5044035;28;20038;-70
2023/06/06 00:45:02;;;;;;;14.27;4.70;;;;;;;;;;5010821;28;20026;-70
2023/06/06 00:47:29;;;;;;;10.18;5.15;;;;;;;;;;5012029;28;20042;-70
2023/06/06 00:49:55;;;;;;;7.00;4.72;;;;;;;;;;5010602;28;20022;-72
2023/06/06 00:52:24;;;;;;;13.48;5.65;;;;;;;;;;5010682;28;20041;-70
2023/06/06 00:54:50;;;;;;;11.25;5.53;;;;;;;;;;5026719;28;20018;-70
2023/06/06 00:57:18;;;;;;;9.85;6.63;;;;;;;;;;5010736;28;20029;-70
2023/06/06 00:59:45;;;;;;;7.55;5.30;;;;;;;;;;5011296;28;20029;-70
2023/06/06 01:02:17;;;;;;;9.15;5.75;;;;;;;;;;5010823;28;20044;-71
2023/06/06 01:04:44;;;;;;;10.07;5.43;;;;;;;;;;5011548;28;20030;-71
2023/06/06 01:07:12;;;;;;;15.82;6.28;;;;;;;;;;5012542;28;20022;-70
2023/06/06 01:09:41;;;;;;;13.40;5.50;;;;;;;;;;5010324;28;20030;-70
2023/06/06 01:12:15;;;;;;;11.13;5.28;;;;;;;;;;5027058;28;20030;-70
2023/06/06 01:14:56;;;;;;;9.35;5.97;;;;;;;;;;5010042;28;20040;-70
2023/06/06 01:17:25;;;;;;;8.57;4.78;;;;;;;;;;5027004;28;20030;-71
2023/06/06 01:19:54;;;;;;;9.13;5.38;;;;;;;;;;5012771;28;20021;-70
2023/06/06 01:22:22;;;;;;;9.30;5.57;;;;;;;;;;5015316;28;20041;-70
2023/06/06 01:24:56;;;;;;;7.53;4.70;;;;;;;;;;5014781;28;20502;-70
2023/06/06 01:27:24;;;;;;;8.88;5.03;;;;;;;;;;5013799;28;20108;-70
2023/06/06 01:29:50;;;;;;;7.80;5.03;;;;;;;;;;5013148;28;20030;-70
2023/06/06 01:32:34;;;;;;;8.27;4.80;;;;;;;;;;5013716;28;20033;-70
2023/06/06 01:35:05;;;;;;;7.32;5.30;;;;;;;;;;5013632;28;20036;-70
2023/06/06 01:37:40;;;;;;;14.73;5.60;;;;;;;;;;5014919;28;20038;-70
2023/06/06 01:40:09;;;;;;;9.95;6.47;;;;;;;;;;5014704;28;20104;-70
2023/06/06 01:42:47;;;;;;;9.43;4.97;;;;;;;;;;5029868;28;20103;-70
2023/06/06 01:45:16;;;;;;;11.95;5.80;;;;;;;;;;5013154;28;20038;-70
2023/06/06 01:47:43;;;;;;;10.68;5.70;;;;;;;;;;5012946;28;20088;-70
2023/06/06 01:50:10;;;;;;;7.75;5.47;;;;;;;;;;5029223;28;20054;-71
2023/06/06 01:52:40;;;;;;;10.32;5.30;;;;;;;;;;5014470;28;20030;-70
2023/06/06 01:55:10;;;;;;;12.40;5.90;;;;;;;;;;5012987;28;20033;-70
2023/06/06 01:57:36;;;;;;;13.05;6.13;;;;;;;;;;5012933;28;20056;-70
2023/06/06 02:00:06;;;;;;;10.38;4.95;;;;;;;;;;5012527;28;20068;-70
2023/06/06 02:02:39;;;;;;;8.68;5.00;;;;;;;;;;5014265;28;20094;-70
2023/06/06 02:05:06;;;;;;;8.20;4.85;;;;;;;;;;5012679;28;20034;-71
2023/06/06 02:07:34;;;;;;;8.43;5.13;;;;;;;;;;5012756;28;20113;-70
2023/06/06 02:10:04;;;;;;;8.57;5.28;;;;;;;;;;5012256;28;20033;-71
2023/06/06 02:12:31;;;;;;;12.23;4.97;;;;;;;;;;5012694;28;20045;-71
2023/06/06 02:14:57;;;;;;;11.55;5.18;;;;;;;;;;5012300;28;20476;-71
2023/06/06 02:17:22;;;;;;;8.15;5.03;;;;;;;;;;5014203;28;20461;-71
2023/06/06 02:19:52;;;;;;;7.75;5.32;;;;;;;;;;5013445;28;20080;-71
2023/06/06 02:22:18;;;;;;;8.25;5.32;;;;;;;;;;5012568;28;20030;-71
2023/06/06 02:24:44;;;;;;;12.40;5.82;;;;;;;;;;5013650;28;20068;-70
2023/06/06 02:27:11;;;;;;;7.40;4.75;;;;;;;;;;5013747;28;20040;-70
2023/06/06 02:29:37;;;;;;;11.82;5.57;;;;;;;;;;5012918;28;20022;-70
2023/06/06 02:32:03;;;;;;;14.80;6.20;;;;;;;;;;5012890;28;20117;-70
2023/06/06 02:34:29;;;;;;;11.10;5.93;;;;;;;;;;5012337;28;20045;-70
2023/06/06 02:36:56;;;;;;;10.90;6.38;;;;;;;;;;4974531;28;20050;-70
2023/06/06 02:39:23;;;;;;;7.45;4.85;;;;;;;;;;4989193;28;20113;-71
2023/06/06 02:41:52;;;;;;;9.95;5.53;;;;;;;;;;4991891;28;20503;-70
2023/06/06 02:44:19;;;;;;;7.93;5.70;;;;;;;;;;4992576;28;20164;-71
2023/06/06 02:46:46;;;;;;;8.27;5.63;;;;;;;;;;4992660;28;20042;-70
2023/06/06 02:49:13;;;;;;;10.88;6.25;;;;;;;;;;4992132;28;20487;-70
2023/06/06 02:51:40;;;;;;;10.73;5.97;;;;;;;;;;4992670;28;20058;-70
2023/06/06 02:54:06;;;;;;;14.10;6.35;;;;;;;;;;4992601;28;20515;-70
2023/06/06 02:56:31;;;;;;;9.88;5.63;;;;;;;;;;4992151;28;20065;-70
2023/06/06 02:58:57;;;;;;;10.75;6.05;;;;;;;;;;4992132;28;20373;-71
2023/06/06 03:01:25;;;;;;;9.35;6.03;;;;;;;;;;4992435;28;20181;-70
2023/06/06 03:03:51;;;;;;;8.32;5.32;;;;;;;;;;4992319;28;20546;-70
2023/06/06 03:06:17;;;;;;;8.25;5.07;;;;;;;;;;4992282;28;20038;-71
2023/06/06 03:08:43;;;;;;;9.05;4.80;;;;;;;;;;4991787;28;20026;-70
2023/06/06 03:11:09;;;;;;;9.82;5.55;;;;;;;;;;4992075;28;20030;-70
2023/06/06 03:13:35;;;;;;;9.52;5.30;;;;;;;;;;4993130;28;20101;-70
2023/06/06 03:16:02;;;;;;;9.68;4.70;;;;;;;;;;4993295;28;20444;-70
2023/06/06 03:18:28;;;;;;;11.70;5.38;;;;;;;;;;5008789;28;20126;-71
2023/06/06 03:21:02;;;;;;;12.75;5.55;;;;;;;;;;4993348;28;20125;-70
2023/06/06 03:23:34;;;;;;;13.00;5.82;;;;;;;;;;4992105;28;20092;-70
2023/06/06 03:26:03;;;;;;;14.52;6.63;;;;;;;;;;4991877;28;20042;-71
2023/06/06 03:28:31;;;;;;;14.52;6.53;;;;;;;;;;4991309;28;20029;-70
2023/06/06 03:30:59;;;;;;;13.02;6.63;;;;;;;;;;4991809;28;20026;-70
2023/06/06 03:33:26;;;;;;;11.30;6.32;;;;;;;;;;4991808;28;20117;-70
2023/06/06 03:35:55;;;;;;;12.75;6.43;;;;;;;;;;4991412;28;20038;-70
2023/06/06 03:38:22;;;;;;;12.90;6.05;;;;;;;;;;4992047;28;20396;-70
2023/06/06 03:40:48;;;;;;;16.85;6.97;;;;;;;;;;4993343;28;20030;-70
2023/06/06 03:43:14;;;;;;;16.85;6.50;;;;;;;;;;4991316;28;20028;-71
2023/06/06 03:45:41;;;;;;;21.05;6.90;;;;;;;;;;4990745;28;20411;-70
2023/06/06 03:48:09;;;;;;;12.02;5.65;;;;;;;;;;4984109;28;20026;-70
2023/06/06 03:50:36;;;;;;;15.90;6.78;;;;;;;;;;4989112;28;20400;-71
2023/06/06 03:53:02;;;;;;;11.60;5.93;;;;;;;;;;4989501;28;20029;-70
2023/06/06 03:55:34;;;;;;;16.88;6.45;;;;;;;;;;4969319;28;20050;-70
2023/06/06 03:58:01;;;;;;;15.65;6.88;;;;;;;;;;4987439;28;20109;-71
2023/06/06 04:00:27;;;;;;;19.90;6.75;;;;;;;;;;4988922;28;20112;-71
2023/06/06 04:02:53;;;;;;;14.65;6.53;;;;;;;;;;4989229;28;20065;-71
2023/06/06 04:05:19;;;;;;;18.20;6.47;;;;;;;;;;4991210;28;20026;-72
2023/06/06 04:07:45;;;;;;;10.68;5.88;;;;;;;;;;4990648;28;20125;-72
2023/06/06 04:10:11;;;;;;;14.45;6.45;;;;;;;;;;4990742;28;20034;-72
2023/06/06 04:12:39;;;;;;;11.07;6.00;;;;;;;;;;4990764;28;20022;-71
2023/06/06 04:15:07;;;;;;;7.90;5.15;;;;;;;;;;4972955;28;20034;-71
2023/06/06 04:17:34;;;;;;;8.02;5.28;;;;;;;;;;5003600;28;20472;-71
2023/06/06 04:20:00;;;;;;;11.57;5.88;;;;;;;;;;4978629;28;20031;-71
2023/06/06 04:22:28;;;;;;;9.50;5.03;;;;;;;;;;4992001;28;20022;-70
2023/06/06 04:24:56;;;;;;;11.48;5.63;;;;;;;;;;4990319;28;20029;-71
2023/06/06 04:27:23;;;;;;;10.82;5.65;;;;;;;;;;4990535;28;20053;-71
2023/06/06 04:29:53;;;;;;;11.10;4.95;;;;;;;;;;4990460;28;20629;-72
2023/06/06 04:32:19;;;;;;;8.90;4.63;;;;;;;;;;4990794;28;20049;-70
2023/06/06 04:34:46;;;;;;;7.18;4.85;;;;;;;;;;4990569;28;20436;-71
2023/06/06 04:37:14;;;;;;;8.25;4.20;;;;;;;;;;4990360;28;20426;-70
2023/06/06 04:39:41;;;;;;;6.93;4.25;;;;;;;;;;4989950;28;20477;-71
2023/06/06 04:42:07;;;;;;;8.80;5.47;;;;;;;;;;5000166;28;20038;-71
2023/06/06 04:44:42;;;;;;;8.70;5.03;;;;;;;;;;4991868;28;20441;-70
2023/06/06 04:47:10;;;;;;;7.03;4.65;;;;;;;;;;4990323;28;20034;-71
2023/06/06 04:49:39;;;;;;;8.88;4.65;;;;;;;;;;4990144;28;20022;-71
2023/06/06 04:52:06;;;;;;;10.27;5.13;;;;;;;;;;4991578;28;20042;-71
2023/06/06 04:54:33;;;;;;;9.40;4.63;;;;;;;;;;4992854;28;20105;-71
2023/06/06 04:57:01;;;;;;;9.70;4.40;;;;;;;;;;4995398;28;20037;-71
2023/06/06 04:59:27;;;;;;;6.97;4.20;;;;;;;;;;4995352;28;20060;-71
2023/06/06 05:01:55;;;;;;;8.75;4.45;;;;;;;;;;4995127;28;20062;-71
2023/06/06 05:04:22;;;;;;;8.48;3.97;;;;;;;;;;4987520;28;20032;-71
2023/06/06 05:06:48;;;;;;;6.78;4.15;;;;;;;;;;4994549;28;20046;-71
2023/06/06 05:09:14;;;;;;;11.65;4.60;;;;;;;;;;4995803;28;20034;-71
2023/06/06 05:11:48;;;;;;;8.55;4.68;;;;;;;;;;4993899;28;20080;-70
2023/06/06 05:14:17;;;;;;;9.75;4.25;;;;;;;;;;4994907;28;20476;-73
2023/06/06 05:16:47;;;;;;;9.55;3.85;;;;;;;;;;4995182;28;20073;-71
2023/06/06 05:19:16;;;;;;;7.57;4.47;;;;;;;;;;4995632;28;20133;-70
2023/06/06 05:21:41;;;;;;;8.98;4.72;;;;;;;;;;4994735;28;20101;-71
2023/06/06 05:24:07;;;;;;;10.15;4.38;;;;;;;;;;4994385;28;20456;-70
2023/06/06 05:26:33;;;;;;;7.10;4.25;;;;;;;;;;4994282;28;20018;-70
2023/06/06 05:29:00;;;;;;;10.02;4.53;;;;;;;;;;4994065;28;20050;-71
2023/06/06 05:31:26;;;;;;;12.55;6.00;;;;;;;;;;4992645;28;20040;-71
2023/06/06 05:33:53;;;;;;;8.55;4.60;;;;;;;;;;5022562;28;20129;-71
2023/06/06 05:36:19;;;;;;;11.35;4.38;;;;;;;;;;4994164;28;20030;-72
2023/06/06 05:38:46;;;;;;;8.40;4.75;;;;;;;;;;4990945;28;20038;-71
2023/06/06 05:41:15;;;;;;;16.08;5.13;;;;;;;;;;4994533;28;20026;-72
2023/06/06 05:43:44;;;;;;;8.07;4.57;;;;;;;;;;4994568;28;20034;-71
2023/06/06 05:46:11;;;;;;;8.40;4.20;;;;;;;;;;4994149;28;20102;-71
2023/06/06 05:48:37;;;;;;;7.70;3.85;;;;;;;;;;4991776;28;20034;-70
2023/06/06 05:51:03;;;;;;;8.80;4.43;;;;;;;;;;4992397;28;20040;-71
2023/06/06 05:53:29;;;;;;;9.40;3.80;;;;;;;;;;4993710;28;20038;-72
2023/06/06 05:55:54;;;;;;;10.45;4.45;;;;;;;;;;4994220;28;20030;-71
2023/06/06 05:58:20;;;;;;;10.15;4.70;;;;;;;;;;4993459;28;20467;-71
2023/06/06 06:00:46;;;;;;;7.53;4.43;;;;;;;;;;4993867;28;20132;-71
2023/06/06 06:03:12;;;;;;;12.77;4.50;;;;;;;;;;4994110;28;20140;-71
2023/06/06 06:05:38;;;;;;;12.73;4.35;;;;;;;;;;4992306;28;20105;-72
2023/06/06 06:08:06;;;;;;;9.32;3.97;;;;;;;;;;4993754;28;20053;-72
2023/06/06 06:10:36;;;;;;;8.30;5.68;;;;;;;;;;4993611;28;20503;-71
2023/06/06 06:13:03;;;;;;;12.57;4.97;;;;;;;;;;4993695;28;20058;-71
2023/06/06 06:15:30;;;;;;;9.20;4.20;;;;;;;;;;4991194;28;20030;-71
2023/06/06 06:17:56;;;;;;;7.28;4.25;;;;;;;;;;4990618;28;20039;-71
2023/06/06 06:20:22;;;;;;;5.22;3.78;;;;;;;;;;4993168;28;20076;-72
2023/06/06 06:22:48;;;;;;;7.30;4.10;;;;;;;;;;4993456;28;20062;-71
2023/06/06 06:25:14;;;;;;;11.73;4.55;;;;;;;;;;4993738;28;20026;-71
2023/06/06 06:27:40;;;;;;;8.23;3.83;;;;;;;;;;4993243;28;20053;-71
2023/06/06 06:30:08;;;;;;;9.55;4.55;;;;;;;;;;4993390;28;20504;-71
2023/06/06 06:32:36;;;;;;;6.88;4.30;;;;;;;;;;4991858;28;20038;-71
2023/06/06 06:35:05;;;;;;;8.52;4.43;;;;;;;;;;4993027;28;20418;-71
2023/06/06 06:37:33;;;;;;;12.50;4.43;;;;;;;;;;4993361;28;20430;-71
2023/06/06 06:39:59;;;;;;;13.70;4.00;;;;;;;;;;4994760;28;20048;-70
2023/06/06 06:42:26;;;;;;;8.30;3.63;;;;;;;;;;4992881;28;20482;-71
2023/06/06 06:45:19;;;;;;;10.43;4.65;;;;;;;;;;4988057;28;20114;-72
2023/06/06 06:47:45;;;;;;;9.40;4.68;;;;;;;;;;4987103;28;20106;-71
2023/06/06 06:50:11;;;;;;;9.13;4.43;;;;;;;;;;4992709;28;20437;-71
2023/06/06 06:52:37;;;;;;;8.20;3.67;;;;;;;;;;4993441;28;20456;-71
2023/06/06 06:55:04;;;;;;;7.43;3.70;;;;;;;;;;4992869;28;20034;-71
2023/06/06 06:57:31;;;;;;;5.82;3.67;;;;;;;;;;4993097;28;20026;-73
2023/06/06 06:59:58;;;;;;;12.70;4.63;;;;;;;;;;5008135;28;20034;-72
2023/06/06 07:02:26;;;;;;;9.05;3.78;;;;;;;;;;4992679;28;20157;-75
2023/06/06 07:04:59;;;;;;;6.93;3.58;;;;;;;;;;4993117;28;20080;-74
2023/06/06 07:07:25;;;;;;;5.60;3.50;;;;;;;;;;5007556;28;20062;-75
2023/06/06 07:09:52;;;;;;;6.95;3.85;;;;;;;;;;4992976;28;20452;-73
2023/06/06 07:12:17;;;;;;;10.95;3.60;;;;;;;;;;4988398;28;20121;-73
2023/06/06 07:14:43;;;;;;;7.20;3.90;;;;;;;;;;4992716;28;20026;-74
2023/06/06 07:17:09;;;;;;;6.18;3.50;;;;;;;;;;4991534;28;20034;-75
2023/06/06 07:19:36;;;;;;;9.48;3.15;;;;;;;;;;4992462;28;20030;-75
2023/06/06 07:22:05;;;;;;;10.60;3.67;;;;;;;;;;4991325;28;20089;-75
2023/06/06 07:24:32;;;;;;;5.90;3.05;;;;;;;;;;4991386;28;20026;-72
2023/06/06 07:26:59;;;;;;;7.28;3.67;;;;;;;;;;4992464;28;20041;-74
2023/06/06 07:29:26;;;;;;;8.45;3.58;;;;;;;;;;4991995;28;20231;-74
2023/06/06 07:31:55;;;;;;;5.90;3.53;;;;;;;;;;4992221;28;20481;-75
2023/06/06 07:34:21;;;;;;;8.48;3.95;;;;;;;;;;4992856;28;20046;-75
2023/06/06 07:36:47;;;;;;;5.28;3.40;;;;;;;;;;4992812;28;20180;-74
2023/06/06 07:39:13;;;;;;;8.07;3.35;;;;;;;;;;4992204;28;20492;-73
2023/06/06 07:41:41;;;;;;;6.07;3.22;;;;;;;;;;4992158;28;20045;-74
2023/06/06 07:44:06;;;;;;;5.78;3.22;;;;;;;;;;4988966;28;20023;-74
2023/06/06 07:46:32;;;;;;;6.55;3.38;;;;;;;;;;4990740;28;20041;-75
2023/06/06 07:48:59;;;;;;;7.32;3.58;;;;;;;;;;4988715;28;20026;-74
2023/06/06 07:51:25;;;;;;;7.75;3.60;;;;;;;;;;4990659;28;20034;-74
2023/06/06 07:53:51;;;;;;;7.03;3.20;;;;;;;;;;4990569;28;20053;-75
2023/06/06 07:56:18;;;;;;;8.40;3.38;;;;;;;;;;4991837;28;20048;-74
2023/06/06 07:58:52;;;;;;;5.35;3.20;;;;;;;;;;4990631;28;20026;-75
2023/06/06 08:01:23;;;;;;;4.70;2.83;;;;;;;;;;4991763;28;20034;-74
2023/06/06 08:03:50;;;;;;;7.57;3.30;;;;;;;;;;4992170;28;20511;-73
2023/06/06 08:06:23;;;;;;;5.43;3.35;;;;;;;;;;4985710;28;20038;-76
2023/06/06 08:08:51;;;;;;;9.15;3.15;;;;;;;;;;4985573;28;20034;-75
2023/06/06 08:11:17;;;;;;;5.22;3.17;;;;;;;;;;4990778;28;20105;-73
2023/06/06 08:13:43;;;;;;;6.80;2.80;;;;;;;;;;4991992;28;20038;-75
2023/06/06 08:16:09;;;;;;;7.78;3.35;;;;;;;;;;4990636;28;20367;-75
2023/06/06 08:18:35;;;;;;;6.80;3.25;;;;;;;;;;4992079;28;20031;-74
2023/06/06 08:21:01;;;;;;;6.82;3.17;;;;;;;;;;4992082;28;20097;-73
2023/06/06 08:23:27;;;;;;;5.18;2.95;;;;;;;;;;4990249;28;20557;-74
2023/06/06 08:25:55;;;;;;;5.60;2.95;;;;;;;;;;4983640;28;20034;-75
2023/06/06 08:28:25;;;;;;;5.63;2.90;;;;;;;;;;5006412;28;20037;-74
2023/06/06 08:30:52;;;;;;;7.90;3.13;;;;;;;;;;5011067;28;20042;-73
2023/06/06 08:33:19;;;;;;;8.93;3.08;;;;;;;;;;4995738;28;20026;-73
2023/06/06 08:35:45;;;;;;;5.60;3.03;;;;;;;;;;4995968;28;20519;-72
2023/06/06 08:38:11;;;;;;;7.03;3.45;;;;;;;;;;4995346;28;20033;-73
2023/06/06 08:40:38;;;;;;;7.53;2.90;;;;;;;;;;4996383;28;20034;-73
2023/06/06 08:43:05;;;;;;;5.55;3.17;;;;;;;;;;4995964;28;20030;-72
2023/06/06 08:45:31;;;;;;;5.82;3.05;;;;;;;;;;4992791;28;20038;-74
2023/06/06 08:47:58;;;;;;;6.40;3.38;;;;;;;;;;4996032;28;20392;-76
2023/06/06 08:50:26;;;;;;;6.97;3.60;;;;;;;;;;4995252;28;20038;-74
2023/06/06 08:52:53;;;;;;;3.83;2.90;;;;;;;;;;4994973;28;20018;-74
2023/06/06 08:55:19;;;;;;;6.95;2.85;;;;;;;;;;4995473;28;20030;-74
2023/06/06 08:57:47;;;;;;;7.40;3.00;;;;;;;;;;5010669;28;20559;-75
2023/06/06 09:00:23;;;;;;;4.78;2.78;;;;;;;;;;5010606;28;20034;-73
2023/06/06 09:02:52;;;;;;;6.53;3.53;;;;;;;;;;5008889;28;20133;-73
2023/06/06 09:05:19;;;;;;;7.85;3.22;;;;;;;;;;4995478;28;20445;-75
2023/06/06 09:07:53;;;;;;;6.78;3.20;;;;;;;;;;4995458;28;20480;-75
2023/06/06 09:10:19;;;;;;;6.60;2.60;;;;;;;;;;4995307;28;20088;-75
2023/06/06 09:12:47;;;;;;;5.72;2.67;;;;;;;;;;4995309;28;20034;-75
2023/06/06 09:15:14;;;;;;;4.70;2.88;;;;;;;;;;4993081;28;20145;-74
2023/06/06 09:17:43;;;;;;;8.45;2.70;;;;;;;;;;4995021;28;20066;-74
2023/06/06 09:20:12;;;;;;;9.52;2.50;;;;;;;;;;4994606;28;20085;-75
2023/06/06 09:22:38;;;;;;;4.55;2.72;;;;;;;;;;4994668;28;20026;-75
2023/06/06 09:25:05;;;;;;;5.10;2.20;;;;;;;;;;4995107;28;20038;-75
2023/06/06 09:27:31;;;;;;;7.45;2.55;;;;;;;;;;4994733;28;20023;-73
2023/06/06 09:29:57;;;;;;;9.63;2.55;;;;;;;;;;4994915;28;20475;-74
2023/06/06 09:32:27;;;;;;;7.78;2.50;;;;;;;;;;4995017;28;20045;-75
2023/06/06 09:34:54;;;;;;;5.03;2.25;;;;;;;;;;4995021;28;20038;-76
2023/06/06 09:37:23;;;;;;;5.32;2.10;;;;;;;;;;4993515;28;20122;-73
2023/06/06 09:40:11;;;;;;;5.32;2.30;;;;;;;;;;4994526;28;20044;-75
2023/06/06 09:42:40;;;;;;;3.75;2.17;;;;;;;;;;4994441;28;20032;-74
2023/06/06 09:45:26;;;;;;;6.05;2.45;;;;;;;;;;4994101;28;20117;-74
2023/06/06 09:47:52;;;;;;;3.92;1.95;;;;;;;;;;4993533;28;20577;-74
2023/06/06 09:50:19;;;;;;;5.05;2.22;;;;;;;;;;4993438;28;20026;-75
2023/06/06 09:52:49;;;;;;;6.75;2.13;;;;;;;;;;4994776;28;20511;-75
2023/06/06 09:55:17;;;;;;;4.40;1.85;;;;;;;;;;4993796;28;20082;-75
2023/06/06 09:57:44;;;;;;;3.70;2.10;;;;;;;;;;4994663;28;20400;-73
2023/06/06 10:00:14;;;;;;;5.57;2.10;;;;;;;;;;4994237;28;20116;-74
2023/06/06 10:02:45;;;;;;;4.65;2.40;;;;;;;;;;4994973;28;20376;-75
2023/06/06 10:05:15;;;;;;;5.47;2.10;;;;;;;;;;4993233;28;20373;-74
2023/06/06 10:07:45;;;;;;;3.70;2.13;;;;;;;;;;4994464;28;20046;-74
2023/06/06 10:10:13;;;;;;;3.70;2.15;;;;;;;;;;4993311;28;20070;-73
2023/06/06 10:12:40;;;;;;;4.68;2.30;;;;;;;;;;4993029;28;20455;-74
2023/06/06 10:15:10;;;;;;;6.10;2.40;;;;;;;;;;4994631;28;20105;-73
2023/06/06 10:17:37;;;;;;;3.05;1.83;;;;;;;;;;4992932;28;20038;-72
2023/06/06 10:20:06;;;;;;;5.03;1.98;;;;;;;;;;4992738;28;20097;-70
2023/06/06 10:22:35;;;;;;;6.20;1.90;;;;;;;;;;4994244;28;20050;-73
2023/06/06 10:25:16;;;;;;;4.82;1.98;;;;;;;;;;4994343;28;20484;-74
2023/06/06 10:28:15;;;;;;;4.05;1.90;;;;;;;;;;4994010;28;20080;-72
2023/06/06 10:30:46;;;;;;;5.40;1.80;;;;;;;;;;4992731;28;20055;-73
2023/06/06 10:33:21;;;;;;;4.72;2.55;;;;;;;;;;4994394;28;20449;-73
2023/06/06 10:35:52;;;;;;;3.45;1.77;;;;;;;;;;4993738;28;20072;-73
2023/06/06 10:38:18;;;;;;;3.65;2.00;;;;;;;;;;4992791;28;20384;-74
2023/06/06 10:41:14;;;;;;;4.60;2.35;;;;;;;;;;5025565;28;20026;-75
2023/06/06 10:43:45;;;;;;;3.88;2.00;;;;;;;;;;4993702;28;20041;-73
2023/06/06 10:46:12;;;;;;;3.83;1.85;;;;;;;;;;5008509;28;20152;-74
2023/06/06 10:48:42;;;;;;;4.45;1.65;;;;;;;;;;4993483;28;20026;-74
2023/06/06 10:51:24;;;;;;;7.53;2.00;;;;;;;;;;4993622;28;20081;-76
2023/06/06 10:54:15;;;;;;;5.60;2.10;;;;;;;;;;4993375;28;20045;-74
2023/06/06 10:56:59;;;;;;;5.40;1.90;;;;;;;;;;4993436;28;20432;-74
2023/06/06 10:59:31;;;;;;;3.30;1.88;;;;;;;;;;5006405;28;20416;-74
2023/06/06 11:01:58;;;;;;;5.00;2.28;;;;;;;;;;4993459;28;20038;-73
2023/06/06 11:04:26;;;;;;;4.07;2.00;;;;;;;;;;4993744;28;20496;-75
2023/06/06 11:07:15;;;;;;;9.40;2.40;;;;;;;;;;4993828;28;20046;-75
2023/06/06 11:09:42;;;;;;;3.72;1.80;;;;;;;;;;4991930;28;20038;-74
2023/06/06 11:12:14;;;;;;;5.75;2.03;;;;;;;;;;4993216;28;20025;-73
2023/06/06 11:15:06;;;;;;;4.47;2.33;;;;;;;;;;4993535;28;20040;-74
2023/06/06 11:17:53;;;;;;;6.28;2.13;;;;;;;;;;4993415;28;20507;-75
2023/06/06 11:20:24;;;;;;;3.65;1.95;;;;;;;;;;4993458;28;20088;-76
2023/06/06 11:23:13;;;;;;;3.35;2.00;;;;;;;;;;4992965;28;20034;-75
2023/06/06 11:25:41;;;;;;;4.78;2.00;;;;;;;;;;4992349;28;20121;-75
2023/06/06 11:28:09;;;;;;;6.20;2.10;;;;;;;;;;4993974;28;20027;-75
2023/06/06 11:30:36;;;;;;;5.07;2.17;;;;;;;;;;4993305;28;20038;-74
2023/06/06 11:33:10;;;;;;;5.63;2.10;;;;;;;;;;4992005;28;20177;-73
2023/06/06 11:35:38;;;;;;;4.55;2.25;;;;;;;;;;4993506;28;20364;-72
2023/06/06 11:38:05;;;;;;;7.07;2.13;;;;;;;;;;4993042;28;20026;-72
2023/06/06 11:40:30;;;;;;;5.95;1.88;;;;;;;;;;4992630;28;20077;-75
2023/06/06 11:42:58;;;;;;;3.05;1.90;;;;;;;;;;5024263;28;20031;-72
2023/06/06 11:45:24;;;;;;;3.58;1.95;;;;;;;;;;5023440;28;20034;-73
2023/06/06 11:47:51;;;;;;;3.17;2.10;;;;;;;;;;4991150;28;20077;-76
2023/06/06 11:50:27;;;;;;;4.63;2.30;;;;;;;;;;4992739;28;20046;-74
2023/06/06 11:52:55;;;;;;;5.40;2.30;;;;;;;;;;5007797;28;20046;-74
2023/06/06 11:55:34;;;;;;;5.18;2.38;;;;;;;;;;4992435;28;20100;-73
2023/06/06 11:58:03;;;;;;;4.10;2.00;;;;;;;;;;5008202;28;20034;-75
2023/06/06 12:00:28;;;;;;;6.00;2.00;;;;;;;;;;5008513;28;20428;-76
2023/06/06 12:02:58;;;;;;;4.63;2.42;;;;;;;;;;4991515;28;20072;-75
2023/06/06 12:05:25;;;;;;;3.65;2.22;;;;;;;;;;4993337;28;20034;-74
2023/06/06 12:07:54;;;;;;;6.50;2.15;;;;;;;;;;4993243;28;20022;-75
2023/06/06 12:10:31;;;;;;;5.25;2.30;;;;;;;;;;5007941;28;20049;-73
2023/06/06 12:12:58;;;;;;;5.53;2.20;;;;;;;;;;4993521;28;20042;-74
2023/06/06 12:15:28;;;;;;;4.53;2.50;;;;;;;;;;4994564;28;20387;-77
2023/06/06 12:18:02;;;;;;;4.90;1.88;;;;;;;;;;4993846;28;20057;-74
2023/06/06 12:20:28;;;;;;;5.90;2.40;;;;;;;;;;4993286;28;20038;-76
2023/06/06 12:22:53;;;;;;;5.43;2.50;;;;;;;;;;4996307;28;20041;-76
2023/06/06 12:25:27;;;;;;;6.03;2.55;;;;;;;;;;4994119;28;20078;-74
2023/06/06 12:28:07;;;;;;;4.63;2.28;;;;;;;;;;5007083;28;20045;-73
2023/06/06 12:30:33;;;;;;;5.70;2.60;;;;;;;;;;4991983;28;20034;-74
2023/06/06 12:33:02;;;;;;;7.18;2.00;;;;;;;;;;4992029;28;20391;-74
2023/06/06 12:35:29;;;;;;;4.43;2.40;;;;;;;;;;4992558;28;20070;-75
2023/06/06 12:37:55;;;;;;;3.92;2.10;;;;;;;;;;4990975;28;20105;-74
2023/06/06 12:40:27;;;;;;;3.95;2.00;;;;;;;;;;4992554;28;20061;-75
2023/06/06 12:42:59;;;;;;;4.53;2.15;;;;;;;;;;4991251;28;20042;-74
2023/06/06 12:45:26;;;;;;;4.50;2.63;;;;;;;;;;4992419;28;20058;-74
2023/06/06 12:47:53;;;;;;;5.40;2.17;;;;;;;;;;4992343;28;20062;-76
2023/06/06 12:50:20;;;;;;;3.63;1.92;;;;;;;;;;4997345;28;20042;-76
2023/06/06 12:52:49;;;;;;;4.43;2.10;;;;;;;;;;5001254;28;20178;-77
2023/06/06 12:55:15;;;;;;;5.00;2.08;;;;;;;;;;4998776;28;20045;-75
2023/06/06 12:57:43;;;;;;;7.18;2.10;;;;;;;;;;4998858;28;20045;-74
2023/06/06 13:00:11;;;;;;;5.90;1.90;;;;;;;;;;4999614;28;20038;-74
2023/06/06 13:02:38;;;;;;;2.80;1.58;;;;;;;;;;5010281;28;20030;-75
2023/06/06 13:05:05;;;;;;;5.10;2.05;;;;;;;;;;4992342;28;20042;-75
2023/06/06 13:07:30;;;;;;;4.80;2.63;;;;;;;;;;4995144;28;20445;-75
2023/06/06 13:09:58;;;;;;;4.72;2.83;;;;;;;;;;4996711;28;20046;-75
2023/06/06 13:12:25;;;;;;;5.78;2.58;;;;;;;;;;4995248;28;20136;-72
2023/06/06 13:14:55;;;;;;;4.68;2.10;;;;;;;;;;4994971;28;20139;-74
2023/06/06 13:17:21;;;;;;;4.68;2.30;;;;;;;;;;4999196;28;20113;-73
2023/06/06 13:19:49;;;;;;;3.45;2.20;;;;;;;;;;4997766;28;20079;-76
2023/06/06 13:22:20;;;;;;;5.45;2.45;;;;;;;;;;4996331;28;20039;-78
2023/06/06 13:24:45;;;;;;;4.38;2.00;;;;;;;;;;4996345;28;20112;-76
2023/06/06 13:27:12;;;;;;;3.47;2.20;;;;;;;;;;4991235;28;20669;-77
2023/06/06 13:29:39;;;;;;;3.05;2.10;;;;;;;;;;5022431;28;20038;-76
2023/06/06 13:32:05;;;;;;;6.15;2.20;;;;;;;;;;4996565;28;20042;-75
2023/06/06 13:34:31;;;;;;;9.48;2.67;;;;;;;;;;4994828;28;20022;-74
2023/06/06 13:36:59;;;;;;;3.40;2.13;;;;;;;;;;4994067;28;20030;-76
2023/06/06 13:39:26;;;;;;;6.50;3.08;;;;;;;;;;4986111;28;20010;-76
2023/06/06 13:41:52;;;;;;;7.05;2.47;;;;;;;;;;4994407;28;20076;-76
2023/06/06 13:44:21;;;;;;;4.15;2.25;;;;;;;;;;5009334;28;20073;-75
2023/06/06 13:46:48;;;;;;;3.53;2.38;;;;;;;;;;4994075;28;20034;-74
2023/06/06 13:49:16;;;;;;;4.93;2.50;;;;;;;;;;4993085;28;20113;-72
2023/06/06 13:51:46;;;;;;;4.43;2.40;;;;;;;;;;4994296;28;20566;-75
2023/06/06 13:54:12;;;;;;;3.83;2.40;;;;;;;;;;5002758;28;20026;-77
2023/06/06 13:56:44;;;;;;;4.55;2.50;;;;;;;;;;4994738;28;20019;-74
2023/06/06 13:59:10;;;;;;;5.35;2.45;;;;;;;;;;4994120;28;20026;-76
2023/06/06 14:01:36;;;;;;;4.18;2.03;;;;;;;;;;4994819;28;20049;-76
2023/06/06 14:04:03;;;;;;;4.30;2.60;;;;;;;;;;4994441;28;20060;-76
2023/06/06 14:06:28;;;;;;;4.18;2.40;;;;;;;;;;4994728;28;20109;-76
2023/06/06 14:08:54;;;;;;;4.18;2.30;;;;;;;;;;4992960;28;20126;-74
2023/06/06 14:11:21;;;;;;;4.28;2.22;;;;;;;;;;4994611;28;20058;-75
2023/06/06 14:13:48;;;;;;;5.47;2.50;;;;;;;;;;4994162;28;20022;-74
2023/06/06 14:16:15;;;;;;;6.18;2.20;;;;;;;;;;4994266;28;20026;-76
2023/06/06 14:18:46;;;;;;;3.53;2.10;;;;;;;;;;4993774;28;20026;-75
2023/06/06 14:21:45;;;;;;;3.50;2.20;;;;;;;;;;4994032;28;20030;-75
2023/06/06 14:24:12;;;;;;;5.28;2.30;;;;;;;;;;4994021;28;20080;-75
2023/06/06 14:26:38;;;;;;;6.68;2.30;;;;;;;;;;4992187;28;20089;-75
2023/06/06 14:29:04;;;;;;;4.53;2.40;;;;;;;;;;4993676;28;20069;-75
2023/06/06 14:31:30;;;;;;;5.00;2.30;;;;;;;;;;4976370;28;20121;-74
2023/06/06 14:33:57;;;;;;;7.72;2.50;;;;;;;;;;4994338;28;20038;-74
2023/06/06 14:36:23;;;;;;;4.78;2.20;;;;;;;;;;4994026;28;20092;-74
2023/06/06 14:38:50;;;;;;;4.93;2.50;;;;;;;;;;4993772;28;20084;-75
2023/06/06 14:41:17;;;;;;;5.60;2.53;;;;;;;;;;5025989;28;20062;-76
2023/06/06 14:43:43;;;;;;;5.10;2.47;;;;;;;;;;4993827;28;20034;-75
2023/06/06 14:46:10;;;;;;;6.35;2.60;;;;;;;;;;4993660;28;20125;-75
2023/06/06 14:48:36;;;;;;;4.68;2.30;;;;;;;;;;4993818;28;20514;-77